sensor_id;sensor_type;location;lat;lon;timestamp;P1;durP1;ratioP1;P2;durP2;ratioP2
70247;SDS011;57641;51.416;5.506;2022-10-31T00:02:05;18.33;;;6.68;;
70247;SDS011;57641;51.416;5.506;2022-10-31T00:04:30;13.43;;;6.05;;
70247;SDS011;57641;51.416;5.506;2022-10-31T00:06:56;11.20;;;5.97;;
70247;SDS011;57641;51.416;5.506;2022-10-31T00:09:21;15.40;;;6.80;;
70247;SDS011;57641;51.416;5.506;2022-10-31T00:11:46;15.73;;;6.10;;
70247;SDS011;57641;51.416;5.506;2022-10-31T00:14:12;13.60;;;6.70;;
70247;SDS011;57641;51.416;5.506;2022-10-31T00:16:37;15.93;;;6.45;;
70247;SDS011;57641;51.416;5.506;2022-10-31T00:19:04;12.02;;;5.85;;
70247;SDS011;57641;51.416;5.506;2022-10-31T00:21:31;13.15;;;5.72;;
70247;SDS011;57641;51.416;5.506;2022-10-31T00:23:58;16.67;;;6.68;;
70247;SDS011;57641;51.416;5.506;2022-10-31T00:26:26;12.52;;;5.90;;
70247;SDS011;57641;51.416;5.506;2022-10-31T00:28:53;11.65;;;6.13;;
70247;SDS011;57641;51.416;5.506;2022-10-31T00:31:18;13.43;;;6.07;;
70247;SDS011;57641;51.416;5.506;2022-10-31T00:33:44;9.95;;;5.50;;
70247;SDS011;57641;51.416;5.506;2022-10-31T00:36:11;8.82;;;5.32;;
70247;SDS011;57641;51.416;5.506;2022-10-31T00:38:39;12.82;;;5.68;;
70247;SDS011;57641;51.416;5.506;2022-10-31T00:41:05;11.85;;;5.47;;
70247;SDS011;57641;51.416;5.506;2022-10-31T00:43:30;11.05;;;5.68;;
70247;SDS011;57641;51.416;5.506;2022-10-31T00:45:55;13.50;;;6.20;;
70247;SDS011;57641;51.416;5.506;2022-10-31T00:48:21;12.63;;;6.47;;
70247;SDS011;57641;51.416;5.506;2022-10-31T00:50:46;12.50;;;6.47;;
70247;SDS011;57641;51.416;5.506;2022-10-31T00:53:12;14.48;;;5.80;;
70247;SDS011;57641;51.416;5.506;2022-10-31T00:55:37;14.23;;;5.90;;
70247;SDS011;57641;51.416;5.506;2022-10-31T00:58:03;12.98;;;6.65;;
70247;SDS011;57641;51.416;5.506;2022-10-31T01:00:28;14.57;;;5.70;;
70247;SDS011;57641;51.416;5.506;2022-10-31T01:02:54;13.90;;;6.22;;
70247;SDS011;57641;51.416;5.506;2022-10-31T01:05:19;15.80;;;6.10;;
70247;SDS011;57641;51.416;5.506;2022-10-31T01:07:45;12.48;;;6.47;;
70247;SDS011;57641;51.416;5.506;2022-10-31T01:10:11;13.18;;;6.50;;
70247;SDS011;57641;51.416;5.506;2022-10-31T01:12:38;10.15;;;5.65;;
70247;SDS011;57641;51.416;5.506;2022-10-31T01:15:04;9.52;;;6.03;;
70247;SDS011;57641;51.416;5.506;2022-10-31T01:17:30;13.95;;;5.97;;
70247;SDS011;57641;51.416;5.506;2022-10-31T01:19:56;9.20;;;5.75;;
70247;SDS011;57641;51.416;5.506;2022-10-31T01:22:21;13.65;;;6.47;;
70247;SDS011;57641;51.416;5.506;2022-10-31T01:24:47;13.15;;;5.60;;
70247;SDS011;57641;51.416;5.506;2022-10-31T01:27:12;10.35;;;5.70;;
70247;SDS011;57641;51.416;5.506;2022-10-31T01:29:38;15.77;;;6.07;;
70247;SDS011;57641;51.416;5.506;2022-10-31T01:32:03;11.25;;;5.80;;
70247;SDS011;57641;51.416;5.506;2022-10-31T01:34:29;17.55;;;7.25;;
70247;SDS011;57641;51.416;5.506;2022-10-31T01:36:55;8.02;;;5.50;;
70247;SDS011;57641;51.416;5.506;2022-10-31T01:39:20;13.75;;;5.57;;
70247;SDS011;57641;51.416;5.506;2022-10-31T01:41:49;12.90;;;6.03;;
70247;SDS011;57641;51.416;5.506;2022-10-31T01:46:45;11.25;;;5.50;;
70247;SDS011;57641;51.416;5.506;2022-10-31T01:49:14;11.75;;;5.90;;
70247;SDS011;57641;51.416;5.506;2022-10-31T01:52:11;9.20;;;5.57;;
70247;SDS011;57641;51.416;5.506;2022-10-31T01:54:39;9.50;;;5.60;;
70247;SDS011;57641;51.416;5.506;2022-10-31T01:57:08;11.52;;;5.53;;
70247;SDS011;57641;51.416;5.506;2022-10-31T01:59:40;14.90;;;5.50;;
70247;SDS011;57641;51.416;5.506;2022-10-31T02:02:12;14.23;;;6.28;;
70247;SDS011;57641;51.416;5.506;2022-10-31T02:04:38;8.52;;;5.82;;
70247;SDS011;57641;51.416;5.506;2022-10-31T02:07:07;12.48;;;6.40;;
70247;SDS011;57641;51.416;5.506;2022-10-31T02:09:37;14.43;;;6.05;;
70247;SDS011;57641;51.416;5.506;2022-10-31T02:12:04;12.30;;;5.30;;
70247;SDS011;57641;51.416;5.506;2022-10-31T02:14:31;8.52;;;5.25;;
70247;SDS011;57641;51.416;5.506;2022-10-31T02:16:58;10.98;;;5.68;;
70247;SDS011;57641;51.416;5.506;2022-10-31T02:19:27;8.95;;;5.22;;
70247;SDS011;57641;51.416;5.506;2022-10-31T02:22:23;13.35;;;5.35;;
70247;SDS011;57641;51.416;5.506;2022-10-31T02:30:04;13.40;;;6.05;;
70247;SDS011;57641;51.416;5.506;2022-10-31T02:32:46;15.10;;;6.47;;
70247;SDS011;57641;51.416;5.506;2022-10-31T02:38:24;13.10;;;5.68;;
70247;SDS011;57641;51.416;5.506;2022-10-31T02:46:19;12.68;;;6.20;;
70247;SDS011;57641;51.416;5.506;2022-10-31T02:48:51;11.00;;;6.10;;
70247;SDS011;57641;51.416;5.506;2022-10-31T02:51:20;11.95;;;5.65;;
70247;SDS011;57641;51.416;5.506;2022-10-31T02:53:46;12.88;;;6.57;;
70247;SDS011;57641;51.416;5.506;2022-10-31T02:56:13;11.98;;;5.95;;
70247;SDS011;57641;51.416;5.506;2022-10-31T02:58:46;11.82;;;5.97;;
70247;SDS011;57641;51.416;5.506;2022-10-31T03:07:11;13.07;;;5.82;;
70247;SDS011;57641;51.416;5.506;2022-10-31T03:12:22;11.00;;;5.30;;
70247;SDS011;57641;51.416;5.506;2022-10-31T03:20:16;12.23;;;4.78;;
70247;SDS011;57641;51.416;5.506;2022-10-31T03:22:47;7.05;;;4.40;;
70247;SDS011;57641;51.416;5.506;2022-10-31T03:25:12;9.57;;;4.20;;
70247;SDS011;57641;51.416;5.506;2022-10-31T03:27:39;8.23;;;4.88;;
70247;SDS011;57641;51.416;5.506;2022-10-31T03:30:07;12.93;;;4.90;;
70247;SDS011;57641;51.416;5.506;2022-10-31T03:32:35;10.05;;;4.40;;
70247;SDS011;57641;51.416;5.506;2022-10-31T03:35:08;7.60;;;4.60;;
70247;SDS011;57641;51.416;5.506;2022-10-31T03:37:36;6.68;;;4.10;;
70247;SDS011;57641;51.416;5.506;2022-10-31T03:40:05;8.98;;;4.05;;
70247;SDS011;57641;51.416;5.506;2022-10-31T03:42:33;12.85;;;4.60;;
70247;SDS011;57641;51.416;5.506;2022-10-31T03:45:08;10.48;;;4.55;;
70247;SDS011;57641;51.416;5.506;2022-10-31T03:47:38;12.10;;;4.93;;
70247;SDS011;57641;51.416;5.506;2022-10-31T03:50:05;10.27;;;5.05;;
70247;SDS011;57641;51.416;5.506;2022-10-31T03:52:39;10.70;;;5.88;;
70247;SDS011;57641;51.416;5.506;2022-10-31T03:58:03;10.93;;;6.28;;
70247;SDS011;57641;51.416;5.506;2022-10-31T04:00:33;11.27;;;6.82;;
70247;SDS011;57641;51.416;5.506;2022-10-31T04:03:01;14.48;;;7.78;;
70247;SDS011;57641;51.416;5.506;2022-10-31T04:05:35;18.10;;;7.45;;
70247;SDS011;57641;51.416;5.506;2022-10-31T04:08:03;10.52;;;7.05;;
70247;SDS011;57641;51.416;5.506;2022-10-31T04:10:34;14.15;;;6.72;;
70247;SDS011;57641;51.416;5.506;2022-10-31T04:13:06;11.50;;;5.70;;
70247;SDS011;57641;51.416;5.506;2022-10-31T04:15:35;13.38;;;5.93;;
70247;SDS011;57641;51.416;5.506;2022-10-31T04:18:03;10.65;;;6.03;;
70247;SDS011;57641;51.416;5.506;2022-10-31T04:20:31;10.30;;;6.40;;
70247;SDS011;57641;51.416;5.506;2022-10-31T04:23:02;9.27;;;5.75;;
70247;SDS011;57641;51.416;5.506;2022-10-31T04:25:28;10.55;;;5.85;;
70247;SDS011;57641;51.416;5.506;2022-10-31T04:27:54;10.80;;;5.55;;
70247;SDS011;57641;51.416;5.506;2022-10-31T04:30:20;11.23;;;5.80;;
70247;SDS011;57641;51.416;5.506;2022-10-31T04:32:46;9.77;;;5.43;;
70247;SDS011;57641;51.416;5.506;2022-10-31T04:35:11;9.98;;;5.68;;
70247;SDS011;57641;51.416;5.506;2022-10-31T04:37:37;10.80;;;5.35;;
70247;SDS011;57641;51.416;5.506;2022-10-31T04:40:02;12.52;;;5.57;;
70247;SDS011;57641;51.416;5.506;2022-10-31T04:42:29;12.45;;;5.25;;
70247;SDS011;57641;51.416;5.506;2022-10-31T04:44:55;10.25;;;5.15;;
70247;SDS011;57641;51.416;5.506;2022-10-31T04:47:20;13.60;;;5.53;;
70247;SDS011;57641;51.416;5.506;2022-10-31T04:49:46;12.23;;;6.00;;
70247;SDS011;57641;51.416;5.506;2022-10-31T04:52:11;13.32;;;6.63;;
70247;SDS011;57641;51.416;5.506;2022-10-31T04:54:37;13.07;;;6.60;;
70247;SDS011;57641;51.416;5.506;2022-10-31T04:57:02;15.75;;;6.53;;
70247;SDS011;57641;51.416;5.506;2022-10-31T04:59:27;14.18;;;6.93;;
70247;SDS011;57641;51.416;5.506;2022-10-31T05:01:53;13.40;;;7.07;;
70247;SDS011;57641;51.416;5.506;2022-10-31T05:04:18;14.77;;;6.82;;
70247;SDS011;57641;51.416;5.506;2022-10-31T05:06:44;13.40;;;6.75;;
70247;SDS011;57641;51.416;5.506;2022-10-31T05:09:09;13.98;;;6.53;;
70247;SDS011;57641;51.416;5.506;2022-10-31T05:11:34;11.65;;;6.43;;
70247;SDS011;57641;51.416;5.506;2022-10-31T05:14:00;15.02;;;7.50;;
70247;SDS011;57641;51.416;5.506;2022-10-31T05:16:25;11.32;;;6.50;;
70247;SDS011;57641;51.416;5.506;2022-10-31T05:18:51;12.80;;;6.45;;
70247;SDS011;57641;51.416;5.506;2022-10-31T05:21:16;12.00;;;6.20;;
70247;SDS011;57641;51.416;5.506;2022-10-31T05:23:41;19.42;;;7.28;;
70247;SDS011;57641;51.416;5.506;2022-10-31T05:26:07;13.75;;;7.47;;
70247;SDS011;57641;51.416;5.506;2022-10-31T05:28:32;13.32;;;7.20;;
70247;SDS011;57641;51.416;5.506;2022-10-31T05:30:58;13.65;;;7.07;;
70247;SDS011;57641;51.416;5.506;2022-10-31T05:33:23;13.68;;;7.50;;
70247;SDS011;57641;51.416;5.506;2022-10-31T05:35:48;11.73;;;6.80;;
70247;SDS011;57641;51.416;5.506;2022-10-31T05:38:14;16.15;;;8.20;;
70247;SDS011;57641;51.416;5.506;2022-10-31T05:40:39;17.20;;;7.45;;
70247;SDS011;57641;51.416;5.506;2022-10-31T05:43:04;16.15;;;7.60;;
70247;SDS011;57641;51.416;5.506;2022-10-31T05:45:30;18.05;;;8.50;;
70247;SDS011;57641;51.416;5.506;2022-10-31T05:47:59;17.95;;;7.75;;
70247;SDS011;57641;51.416;5.506;2022-10-31T05:50:27;15.18;;;7.78;;
70247;SDS011;57641;51.416;5.506;2022-10-31T05:52:58;15.10;;;7.65;;
70247;SDS011;57641;51.416;5.506;2022-10-31T05:55:28;19.83;;;7.68;;
70247;SDS011;57641;51.416;5.506;2022-10-31T05:57:55;16.92;;;7.50;;
70247;SDS011;57641;51.416;5.506;2022-10-31T06:00:20;15.60;;;8.10;;
70247;SDS011;57641;51.416;5.506;2022-10-31T06:02:47;12.75;;;7.45;;
70247;SDS011;57641;51.416;5.506;2022-10-31T06:05:13;17.15;;;7.75;;
70247;SDS011;57641;51.416;5.506;2022-10-31T06:07:39;17.48;;;7.60;;
70247;SDS011;57641;51.416;5.506;2022-10-31T06:10:04;14.73;;;7.25;;
70247;SDS011;57641;51.416;5.506;2022-10-31T06:12:32;13.23;;;7.22;;
70247;SDS011;57641;51.416;5.506;2022-10-31T06:15:03;14.35;;;7.20;;
70247;SDS011;57641;51.416;5.506;2022-10-31T06:17:30;11.73;;;6.70;;
70247;SDS011;57641;51.416;5.506;2022-10-31T06:19:56;14.13;;;5.82;;
70247;SDS011;57641;51.416;5.506;2022-10-31T06:22:21;10.63;;;5.55;;
70247;SDS011;57641;51.416;5.506;2022-10-31T06:24:46;11.63;;;6.32;;
70247;SDS011;57641;51.416;5.506;2022-10-31T06:27:12;12.02;;;5.47;;
70247;SDS011;57641;51.416;5.506;2022-10-31T06:29:37;14.07;;;6.68;;
70247;SDS011;57641;51.416;5.506;2022-10-31T06:32:03;13.98;;;7.13;;
70247;SDS011;57641;51.416;5.506;2022-10-31T06:34:28;14.25;;;7.18;;
70247;SDS011;57641;51.416;5.506;2022-10-31T06:36:54;12.80;;;6.90;;
70247;SDS011;57641;51.416;5.506;2022-10-31T06:39:19;15.40;;;7.10;;
70247;SDS011;57641;51.416;5.506;2022-10-31T06:41:46;17.88;;;6.82;;
70247;SDS011;57641;51.416;5.506;2022-10-31T06:44:12;10.80;;;6.80;;
70247;SDS011;57641;51.416;5.506;2022-10-31T06:46:38;13.55;;;7.13;;
70247;SDS011;57641;51.416;5.506;2022-10-31T06:49:03;15.43;;;7.45;;
70247;SDS011;57641;51.416;5.506;2022-10-31T06:51:29;15.88;;;7.82;;
70247;SDS011;57641;51.416;5.506;2022-10-31T06:53:54;18.20;;;8.50;;
70247;SDS011;57641;51.416;5.506;2022-10-31T06:56:19;19.00;;;9.70;;
70247;SDS011;57641;51.416;5.506;2022-10-31T06:58:45;18.98;;;8.88;;
70247;SDS011;57641;51.416;5.506;2022-10-31T07:01:11;19.77;;;9.52;;
70247;SDS011;57641;51.416;5.506;2022-10-31T07:03:36;14.98;;;8.27;;
70247;SDS011;57641;51.416;5.506;2022-10-31T07:06:02;15.18;;;7.95;;
70247;SDS011;57641;51.416;5.506;2022-10-31T07:08:28;16.25;;;8.10;;
70247;SDS011;57641;51.416;5.506;2022-10-31T07:10:54;18.63;;;8.25;;
70247;SDS011;57641;51.416;5.506;2022-10-31T07:13:21;18.45;;;8.60;;
70247;SDS011;57641;51.416;5.506;2022-10-31T07:15:54;18.00;;;8.52;;
70247;SDS011;57641;51.416;5.506;2022-10-31T07:18:20;14.10;;;7.78;;
70247;SDS011;57641;51.416;5.506;2022-10-31T07:20:47;18.42;;;8.63;;
70247;SDS011;57641;51.416;5.506;2022-10-31T07:23:13;13.27;;;7.53;;
70247;SDS011;57641;51.416;5.506;2022-10-31T07:25:38;19.52;;;8.88;;
70247;SDS011;57641;51.416;5.506;2022-10-31T07:28:05;15.93;;;8.50;;
70247;SDS011;57641;51.416;5.506;2022-10-31T07:30:31;16.25;;;8.65;;
70247;SDS011;57641;51.416;5.506;2022-10-31T07:32:56;16.73;;;8.60;;
70247;SDS011;57641;51.416;5.506;2022-10-31T07:35:23;16.98;;;9.00;;
70247;SDS011;57641;51.416;5.506;2022-10-31T07:37:50;17.67;;;9.73;;
70247;SDS011;57641;51.416;5.506;2022-10-31T07:40:16;19.25;;;10.45;;
70247;SDS011;57641;51.416;5.506;2022-10-31T07:42:43;14.30;;;9.18;;
70247;SDS011;57641;51.416;5.506;2022-10-31T07:45:11;19.40;;;10.88;;
70247;SDS011;57641;51.416;5.506;2022-10-31T07:47:41;25.20;;;12.18;;
70247;SDS011;57641;51.416;5.506;2022-10-31T07:50:09;22.13;;;11.30;;
70247;SDS011;57641;51.416;5.506;2022-10-31T07:52:36;20.58;;;11.00;;
70247;SDS011;57641;51.416;5.506;2022-10-31T07:55:02;17.92;;;9.90;;
70247;SDS011;57641;51.416;5.506;2022-10-31T07:57:29;21.05;;;10.35;;
70247;SDS011;57641;51.416;5.506;2022-10-31T07:59:55;18.90;;;10.20;;
70247;SDS011;57641;51.416;5.506;2022-10-31T08:02:21;20.05;;;10.85;;
70247;SDS011;57641;51.416;5.506;2022-10-31T08:04:46;15.65;;;9.82;;
70247;SDS011;57641;51.416;5.506;2022-10-31T08:07:12;18.30;;;10.93;;
70247;SDS011;57641;51.416;5.506;2022-10-31T08:09:37;18.90;;;10.35;;
70247;SDS011;57641;51.416;5.506;2022-10-31T08:12:03;16.27;;;10.32;;
70247;SDS011;57641;51.416;5.506;2022-10-31T08:14:29;16.75;;;10.30;;
70247;SDS011;57641;51.416;5.506;2022-10-31T08:16:54;26.67;;;16.25;;
70247;SDS011;57641;51.416;5.506;2022-10-31T08:19:20;32.85;;;21.80;;
70247;SDS011;57641;51.416;5.506;2022-10-31T08:21:45;29.67;;;15.98;;
70247;SDS011;57641;51.416;5.506;2022-10-31T08:24:11;24.80;;;13.95;;
70247;SDS011;57641;51.416;5.506;2022-10-31T08:26:36;21.48;;;12.52;;
70247;SDS011;57641;51.416;5.506;2022-10-31T08:29:02;23.23;;;13.65;;
70247;SDS011;57641;51.416;5.506;2022-10-31T08:31:27;23.88;;;14.27;;
70247;SDS011;57641;51.416;5.506;2022-10-31T08:33:53;23.30;;;15.38;;
70247;SDS011;57641;51.416;5.506;2022-10-31T08:36:19;24.48;;;15.77;;
70247;SDS011;57641;51.416;5.506;2022-10-31T08:38:48;29.17;;;17.08;;
70247;SDS011;57641;51.416;5.506;2022-10-31T08:41:14;23.23;;;14.50;;
70247;SDS011;57641;51.416;5.506;2022-10-31T08:43:40;32.17;;;19.77;;
70247;SDS011;57641;51.416;5.506;2022-10-31T08:46:05;25.98;;;16.95;;
70247;SDS011;57641;51.416;5.506;2022-10-31T08:48:31;30.55;;;18.35;;
70247;SDS011;57641;51.416;5.506;2022-10-31T08:50:57;32.42;;;18.33;;
70247;SDS011;57641;51.416;5.506;2022-10-31T08:53:24;22.75;;;14.23;;
70247;SDS011;57641;51.416;5.506;2022-10-31T08:55:50;33.08;;;18.55;;
70247;SDS011;57641;51.416;5.506;2022-10-31T08:58:19;25.75;;;16.23;;
70247;SDS011;57641;51.416;5.506;2022-10-31T09:00:45;26.95;;;15.55;;
70247;SDS011;57641;51.416;5.506;2022-10-31T09:03:13;26.52;;;16.48;;
70247;SDS011;57641;51.416;5.506;2022-10-31T09:05:40;34.65;;;18.73;;
70247;SDS011;57641;51.416;5.506;2022-10-31T09:08:06;35.90;;;19.80;;
70247;SDS011;57641;51.416;5.506;2022-10-31T09:10:33;32.25;;;19.02;;
70247;SDS011;57641;51.416;5.506;2022-10-31T09:13:01;43.55;;;21.33;;
70247;SDS011;57641;51.416;5.506;2022-10-31T09:15:31;35.10;;;18.48;;
70247;SDS011;57641;51.416;5.506;2022-10-31T09:17:58;34.40;;;19.98;;
70247;SDS011;57641;51.416;5.506;2022-10-31T09:20:24;37.05;;;19.73;;
70247;SDS011;57641;51.416;5.506;2022-10-31T09:22:59;34.05;;;20.15;;
70247;SDS011;57641;51.416;5.506;2022-10-31T09:25:27;35.42;;;20.13;;
70247;SDS011;57641;51.416;5.506;2022-10-31T09:27:56;38.20;;;20.23;;
70247;SDS011;57641;51.416;5.506;2022-10-31T09:30:23;43.35;;;23.27;;
70247;SDS011;57641;51.416;5.506;2022-10-31T09:33:00;37.97;;;20.20;;
70247;SDS011;57641;51.416;5.506;2022-10-31T09:35:27;41.30;;;21.27;;
70247;SDS011;57641;51.416;5.506;2022-10-31T09:37:56;38.53;;;22.27;;
70247;SDS011;57641;51.416;5.506;2022-10-31T09:40:24;45.72;;;23.42;;
70247;SDS011;57641;51.416;5.506;2022-10-31T09:43:14;45.33;;;23.60;;
70247;SDS011;57641;51.416;5.506;2022-10-31T09:48:42;48.53;;;23.27;;
70247;SDS011;57641;51.416;5.506;2022-10-31T09:51:29;41.75;;;23.85;;
70247;SDS011;57641;51.416;5.506;2022-10-31T09:54:12;44.10;;;26.15;;
70247;SDS011;57641;51.416;5.506;2022-10-31T09:56:42;44.08;;;22.15;;
70247;SDS011;57641;51.416;5.506;2022-10-31T09:59:15;43.75;;;21.02;;
70247;SDS011;57641;51.416;5.506;2022-10-31T10:02:03;41.92;;;22.15;;
70247;SDS011;57641;51.416;5.506;2022-10-31T10:09:57;47.40;;;21.90;;
70247;SDS011;57641;51.416;5.506;2022-10-31T10:15:06;49.35;;;23.70;;
70247;SDS011;57641;51.416;5.506;2022-10-31T10:17:51;51.45;;;24.67;;
70247;SDS011;57641;51.416;5.506;2022-10-31T10:26:07;47.85;;;23.52;;
70247;SDS011;57641;51.416;5.506;2022-10-31T10:28:41;47.63;;;22.52;;
70247;SDS011;57641;51.416;5.506;2022-10-31T10:31:13;53.30;;;23.33;;
70247;SDS011;57641;51.416;5.506;2022-10-31T10:36:53;43.20;;;22.25;;
70247;SDS011;57641;51.416;5.506;2022-10-31T10:39:23;44.92;;;20.85;;
70247;SDS011;57641;51.416;5.506;2022-10-31T10:41:55;41.30;;;22.13;;
70247;SDS011;57641;51.416;5.506;2022-10-31T10:44:43;45.47;;;21.77;;
70247;SDS011;57641;51.416;5.506;2022-10-31T10:47:33;47.20;;;21.83;;
70247;SDS011;57641;51.416;5.506;2022-10-31T10:50:27;45.60;;;21.05;;
70247;SDS011;57641;51.416;5.506;2022-10-31T10:58:40;44.00;;;21.13;;
70247;SDS011;57641;51.416;5.506;2022-10-31T11:01:11;42.33;;;22.40;;
70247;SDS011;57641;51.416;5.506;2022-10-31T11:03:38;43.97;;;22.08;;
70247;SDS011;57641;51.416;5.506;2022-10-31T11:06:15;42.33;;;22.42;;
70247;SDS011;57641;51.416;5.506;2022-10-31T11:08:47;34.05;;;17.58;;
70247;SDS011;57641;51.416;5.506;2022-10-31T11:13:47;44.00;;;22.23;;
70247;SDS011;57641;51.416;5.506;2022-10-31T11:18:52;39.50;;;19.60;;
70247;SDS011;57641;51.416;5.506;2022-10-31T11:21:27;35.47;;;18.38;;
70247;SDS011;57641;51.416;5.506;2022-10-31T11:26:39;34.03;;;17.55;;
70247;SDS011;57641;51.416;5.506;2022-10-31T11:29:14;42.65;;;20.90;;
70247;SDS011;57641;51.416;5.506;2022-10-31T11:31:51;35.08;;;18.73;;
70247;SDS011;57641;51.416;5.506;2022-10-31T11:34:29;39.17;;;19.45;;
70247;SDS011;57641;51.416;5.506;2022-10-31T11:37:13;34.17;;;17.33;;
70247;SDS011;57641;51.416;5.506;2022-10-31T11:39:43;42.83;;;20.65;;
70247;SDS011;57641;51.416;5.506;2022-10-31T11:42:18;31.90;;;18.27;;
70247;SDS011;57641;51.416;5.506;2022-10-31T11:44:49;31.65;;;17.60;;
70247;SDS011;57641;51.416;5.506;2022-10-31T11:47:16;34.20;;;18.27;;
70247;SDS011;57641;51.416;5.506;2022-10-31T11:49:47;39.25;;;19.92;;
70247;SDS011;57641;51.416;5.506;2022-10-31T11:54:54;31.10;;;17.00;;
70247;SDS011;57641;51.416;5.506;2022-10-31T11:57:23;37.78;;;19.25;;
70247;SDS011;57641;51.416;5.506;2022-10-31T11:59:54;35.00;;;16.95;;
70247;SDS011;57641;51.416;5.506;2022-10-31T12:02:21;39.78;;;18.95;;
70247;SDS011;57641;51.416;5.506;2022-10-31T12:04:58;35.20;;;19.33;;
70247;SDS011;57641;51.416;5.506;2022-10-31T12:07:29;32.95;;;17.83;;
70247;SDS011;57641;51.416;5.506;2022-10-31T12:09:55;33.22;;;17.67;;
70247;SDS011;57641;51.416;5.506;2022-10-31T12:12:25;31.45;;;15.40;;
70247;SDS011;57641;51.416;5.506;2022-10-31T12:18:01;27.00;;;15.23;;
70247;SDS011;57641;51.416;5.506;2022-10-31T12:23:46;27.08;;;14.02;;
70247;SDS011;57641;51.416;5.506;2022-10-31T12:29:22;32.45;;;14.27;;
70247;SDS011;57641;51.416;5.506;2022-10-31T12:32:24;21.98;;;11.85;;
70247;SDS011;57641;51.416;5.506;2022-10-31T12:35:06;23.73;;;12.82;;
70247;SDS011;57641;51.416;5.506;2022-10-31T12:38:11;26.50;;;12.60;;
70247;SDS011;57641;51.416;5.506;2022-10-31T12:52:29;24.88;;;12.23;;
70247;SDS011;57641;51.416;5.506;2022-10-31T12:55:08;19.52;;;10.25;;
70247;SDS011;57641;51.416;5.506;2022-10-31T12:57:56;25.85;;;11.43;;
70247;SDS011;57641;51.416;5.506;2022-10-31T13:00:32;24.40;;;12.27;;
70247;SDS011;57641;51.416;5.506;2022-10-31T13:05:55;23.20;;;11.48;;
70247;SDS011;57641;51.416;5.506;2022-10-31T13:08:34;19.52;;;11.25;;
70247;SDS011;57641;51.416;5.506;2022-10-31T13:11:11;20.20;;;9.73;;
70247;SDS011;57641;51.416;5.506;2022-10-31T13:16:30;18.37;;;9.70;;
70247;SDS011;57641;51.416;5.506;2022-10-31T13:27:17;21.85;;;11.27;;
70247;SDS011;57641;51.416;5.506;2022-10-31T13:32:22;29.42;;;12.68;;
70247;SDS011;57641;51.416;5.506;2022-10-31T13:34:53;19.38;;;11.18;;
70247;SDS011;57641;51.416;5.506;2022-10-31T13:37:29;21.65;;;12.35;;
70247;SDS011;57641;51.416;5.506;2022-10-31T13:42:57;22.15;;;11.98;;
70247;SDS011;57641;51.416;5.506;2022-10-31T13:45:48;24.98;;;11.10;;
70247;SDS011;57641;51.416;5.506;2022-10-31T13:48:54;21.15;;;11.07;;
70247;SDS011;57641;51.416;5.506;2022-10-31T13:51:27;19.83;;;11.23;;
70247;SDS011;57641;51.416;5.506;2022-10-31T13:53:58;20.25;;;10.90;;
70247;SDS011;57641;51.416;5.506;2022-10-31T13:56:51;27.13;;;12.27;;
70247;SDS011;57641;51.416;5.506;2022-10-31T13:59:19;20.10;;;9.90;;
70247;SDS011;57641;51.416;5.506;2022-10-31T14:01:52;26.60;;;11.32;;
70247;SDS011;57641;51.416;5.506;2022-10-31T14:04:29;21.10;;;10.70;;
70247;SDS011;57641;51.416;5.506;2022-10-31T14:07:10;16.95;;;9.30;;
70247;SDS011;57641;51.416;5.506;2022-10-31T14:09:39;22.42;;;10.32;;
70247;SDS011;57641;51.416;5.506;2022-10-31T14:12:25;18.90;;;10.70;;
70247;SDS011;57641;51.416;5.506;2022-10-31T14:15:02;17.23;;;9.68;;
70247;SDS011;57641;51.416;5.506;2022-10-31T14:17:44;17.77;;;9.85;;
70247;SDS011;57641;51.416;5.506;2022-10-31T14:22:41;20.38;;;9.13;;
70247;SDS011;57641;51.416;5.506;2022-10-31T14:28:22;17.17;;;10.02;;
70247;SDS011;57641;51.416;5.506;2022-10-31T14:30:58;17.13;;;8.88;;
70247;SDS011;57641;51.416;5.506;2022-10-31T14:33:26;20.60;;;10.10;;
70247;SDS011;57641;51.416;5.506;2022-10-31T14:36:08;20.52;;;10.68;;
70247;SDS011;57641;51.416;5.506;2022-10-31T14:44:09;18.48;;;10.05;;
70247;SDS011;57641;51.416;5.506;2022-10-31T14:47:07;18.38;;;10.15;;
70247;SDS011;57641;51.416;5.506;2022-10-31T14:52:23;21.25;;;10.38;;
70247;SDS011;57641;51.416;5.506;2022-10-31T14:54:50;17.55;;;9.55;;
70247;SDS011;57641;51.416;5.506;2022-10-31T14:57:25;17.13;;;9.90;;
70247;SDS011;57641;51.416;5.506;2022-10-31T14:59:57;19.08;;;10.25;;
70247;SDS011;57641;51.416;5.506;2022-10-31T15:02:31;19.58;;;9.95;;
70247;SDS011;57641;51.416;5.506;2022-10-31T15:05:08;18.45;;;9.07;;
70247;SDS011;57641;51.416;5.506;2022-10-31T15:07:35;16.58;;;9.40;;
70247;SDS011;57641;51.416;5.506;2022-10-31T15:10:19;20.02;;;9.60;;
70247;SDS011;57641;51.416;5.506;2022-10-31T15:12:50;22.95;;;12.15;;
70247;SDS011;57641;51.416;5.506;2022-10-31T15:15:23;27.25;;;13.15;;
70247;SDS011;57641;51.416;5.506;2022-10-31T15:17:55;19.73;;;11.00;;
70247;SDS011;57641;51.416;5.506;2022-10-31T15:20:24;21.55;;;10.23;;
70247;SDS011;57641;51.416;5.506;2022-10-31T15:22:53;18.85;;;9.48;;
70247;SDS011;57641;51.416;5.506;2022-10-31T15:25:22;19.00;;;9.27;;
70247;SDS011;57641;51.416;5.506;2022-10-31T15:27:51;17.80;;;9.27;;
70247;SDS011;57641;51.416;5.506;2022-10-31T15:30:18;20.10;;;8.93;;
70247;SDS011;57641;51.416;5.506;2022-10-31T15:32:46;17.25;;;8.65;;
70247;SDS011;57641;51.416;5.506;2022-10-31T15:35:23;16.95;;;8.68;;
70247;SDS011;57641;51.416;5.506;2022-10-31T15:37:53;21.08;;;9.07;;
70247;SDS011;57641;51.416;5.506;2022-10-31T15:40:21;16.48;;;8.00;;
70247;SDS011;57641;51.416;5.506;2022-10-31T15:42:59;15.68;;;8.65;;
70247;SDS011;57641;51.416;5.506;2022-10-31T15:45:28;13.57;;;7.78;;
70247;SDS011;57641;51.416;5.506;2022-10-31T15:50:45;14.77;;;7.82;;
70247;SDS011;57641;51.416;5.506;2022-10-31T15:53:22;13.82;;;7.50;;
70247;SDS011;57641;51.416;5.506;2022-10-31T15:55:55;14.80;;;7.82;;
70247;SDS011;57641;51.416;5.506;2022-10-31T15:58:25;17.75;;;7.80;;
70247;SDS011;57641;51.416;5.506;2022-10-31T16:01:19;17.50;;;7.55;;
70247;SDS011;57641;51.416;5.506;2022-10-31T16:03:44;14.45;;;7.78;;
70247;SDS011;57641;51.416;5.506;2022-10-31T16:06:32;17.75;;;7.38;;
70247;SDS011;57641;51.416;5.506;2022-10-31T16:08:59;13.57;;;7.72;;
70247;SDS011;57641;51.416;5.506;2022-10-31T16:11:31;16.83;;;7.25;;
70247;SDS011;57641;51.416;5.506;2022-10-31T16:16:44;19.00;;;7.88;;
70247;SDS011;57641;51.416;5.506;2022-10-31T16:19:20;14.25;;;7.65;;
70247;SDS011;57641;51.416;5.506;2022-10-31T16:21:52;15.90;;;7.97;;
70247;SDS011;57641;51.416;5.506;2022-10-31T16:27:03;17.70;;;8.05;;
70247;SDS011;57641;51.416;5.506;2022-10-31T16:29:42;15.35;;;6.95;;
70247;SDS011;57641;51.416;5.506;2022-10-31T16:37:37;13.82;;;6.93;;
70247;SDS011;57641;51.416;5.506;2022-10-31T16:40:03;15.00;;;6.72;;
70247;SDS011;57641;51.416;5.506;2022-10-31T16:42:29;15.25;;;6.80;;
70247;SDS011;57641;51.416;5.506;2022-10-31T16:44:54;13.50;;;6.60;;
70247;SDS011;57641;51.416;5.506;2022-10-31T16:47:20;15.38;;;6.57;;
70247;SDS011;57641;51.416;5.506;2022-10-31T16:49:49;13.18;;;6.22;;
70247;SDS011;57641;51.416;5.506;2022-10-31T16:52:15;12.90;;;6.05;;
70247;SDS011;57641;51.416;5.506;2022-10-31T16:54:41;15.77;;;7.22;;
70247;SDS011;57641;51.416;5.506;2022-10-31T16:57:10;12.15;;;6.50;;
70247;SDS011;57641;51.416;5.506;2022-10-31T16:59:40;13.60;;;6.28;;
70247;SDS011;57641;51.416;5.506;2022-10-31T17:02:06;12.48;;;6.18;;
70247;SDS011;57641;51.416;5.506;2022-10-31T17:04:39;15.68;;;6.30;;